»·PEaware :: N324PT KSNA-KAVX

N324PT :: KSNA-KAVX

FLIGHT INFORMATION

Flight Status: Arrived
Operator: Privately registered:
United States
More flights under this callsign
Pilot: Pedro T. (27113)
Aircraft: CESSNA 172 SKYHAWK
(C172)
More flights by this aircraft type
Origin: KSNA John Wayne-Orange Co
United States
Destination: KAVX Catalina
United States
More flights between these airports :: More routes between these airports
Route: SLI V21 SXC
File this flight plan on PilotEdge
Remarks: I-7 Rating
Altitude:
(Current/Filed)
4,000ft
Speed:
(Current/Filed)
100kts
Departed: 29-Jan-20 07:59 PM
Arrived: 29-Jan-20 08:47 PM
Distance/Time
Traveled:
32nm/0:48
Distance/Time
To Go:
Arrived

Flight Plot

Page will automatically refresh every two minutes.


Map Options




Map Legend


Flown Route
Filed Route
Departure Airport
Arrival Airport
Navaid (VOR, NDB)
Fix

Horizontal Profiles

Position Reports

Time Latitude Longitude Heading Altitude Ground
Speed
29-Jan-20 19:45 33.668109 -117.871052 216 60ft 0kts
29-Jan-20 19:46 33.668109 -117.871052 216 60ft 0kts
29-Jan-20 19:47 33.668109 -117.871052 216 60ft 0kts
29-Jan-20 19:48 33.668109 -117.871052 216 60ft 0kts
29-Jan-20 19:49 33.668109 -117.871052 216 60ft 0kts
29-Jan-20 19:50 33.668109 -117.871052 216 60ft 0kts
29-Jan-20 19:51 33.668109 -117.871052 216 60ft 0kts
29-Jan-20 19:52 33.668109 -117.871052 216 60ft 0kts
29-Jan-20 19:53 33.668109 -117.871052 216 60ft 0kts
29-Jan-20 19:54 33.668109 -117.871052 216 60ft 0kts
29-Jan-20 19:55 33.668109 -117.871052 216 60ft 0kts
29-Jan-20 19:56 33.668165 -117.871313 315 60ft 5kts
29-Jan-20 19:57 33.667539 -117.872871 281 60ft 0kts
29-Jan-20 19:58 33.669975 -117.872447 28 60ft 52kts
29-Jan-20 19:59 33.687351 -117.869770 318 708ft 95kts
29-Jan-20 20:00 33.683300 -117.900688 251 1458ft 115kts
29-Jan-20 20:01 33.671265 -117.939061 251 2198ft 123kts
29-Jan-20 20:02 33.661825 -117.977564 251 2875ft 124kts
29-Jan-20 20:03 33.653393 -118.016210 251 3554ft 122kts
29-Jan-20 20:04 33.645331 -118.054402 251 4007ft 136kts
29-Jan-20 20:05 33.636911 -118.094873 252 3998ft 137kts
29-Jan-20 20:06 33.628754 -118.134309 251 4002ft 137kts
29-Jan-20 20:07 33.619964 -118.176354 251 4005ft 137kts
29-Jan-20 20:08 33.608959 -118.216646 220 4009ft 131kts
29-Jan-20 20:09 33.583002 -118.244040 210 4012ft 130kts
29-Jan-20 20:10 33.556311 -118.267097 207 4019ft 131kts
29-Jan-20 20:11 33.526936 -118.290408 210 4028ft 134kts
29-Jan-20 20:12 33.505030 -118.323320 234 4051ft 134kts
29-Jan-20 20:13 33.484823 -118.357406 241 4064ft 132kts
29-Jan-20 20:14 33.465965 -118.392099 243 4066ft 122kts
29-Jan-20 20:15 33.476653 -118.408816 9 4068ft 88kts
29-Jan-20 20:16 33.500340 -118.405086 6 4068ft 105kts
29-Jan-20 20:17 33.528145 -118.405075 348 4061ft 109kts
29-Jan-20 20:18 33.555238 -118.426430 327 4059ft 112kts
29-Jan-20 20:19 33.577005 -118.448990 326 4059ft 113kts
29-Jan-20 20:20 33.601085 -118.470834 3 4055ft 104kts
29-Jan-20 20:21 33.601483 -118.444425 120 4057ft 116kts
29-Jan-20 20:22 33.579580 -118.417823 130 4055ft 117kts
29-Jan-20 20:23 33.552223 -118.401573 171 4055ft 128kts
29-Jan-20 20:24 33.519500 -118.402777 180 4061ft 131kts
29-Jan-20 20:25 33.485071 -118.405446 183 4066ft 133kts
29-Jan-20 20:26 33.448856 -118.408340 186 3811ft 117kts
29-Jan-20 20:27 33.420403 -118.407322 170 2695ft 120kts
29-Jan-20 20:28 33.394468 -118.425866 184 2415ft 111kts
29-Jan-20 20:29 33.364177 -118.426691 209 3037ft 118kts
29-Jan-20 20:30 33.333880 -118.444198 210 3477ft 129kts
29-Jan-20 20:31 33.325103 -118.472468 338 3464ft 113kts
29-Jan-20 20:32 33.342791 -118.450990 76 3488ft 125kts
29-Jan-20 20:33 33.363229 -118.426697 19 3607ft 109kts
29-Jan-20 20:34 33.391073 -118.417887 4 3354ft 111kts
29-Jan-20 20:35 33.420715 -118.413532 4 3476ft 112kts
29-Jan-20 20:36 33.452931 -118.408751 3 3473ft 114kts
29-Jan-20 20:37 33.483184 -118.405979 3 3469ft 113kts
29-Jan-20 20:38 33.512917 -118.403631 5 3464ft 113kts
29-Jan-20 20:39 33.542002 -118.413623 330 3461ft 121kts
29-Jan-20 20:40 33.563399 -118.413982 95 3500ft 116kts
29-Jan-20 20:41 33.533555 -118.402501 177 3503ft 133kts
29-Jan-20 20:42 33.498885 -118.403512 183 3462ft 138kts
29-Jan-20 20:43 33.461750 -118.408294 187 2953ft 134kts
29-Jan-20 20:44 33.430189 -118.408916 174 2223ft 104kts
29-Jan-20 20:45 33.408909 -118.409183 238 1659ft 70kts
29-Jan-20 20:46 33.404105 -118.415042 198 1544ft 7kts
29-Jan-20 20:47 33.403870 -118.415292 235 1546ft 0kts
29-Jan-20 20:48 33.403870 -118.415292 235 1546ft 0kts
29-Jan-20 20:49 33.403870 -118.415292 235 1546ft 0kts
29-Jan-20 20:50 33.403870 -118.415292 235 1546ft 0kts
29-Jan-20 20:51 33.403870 -118.415292 235 1546ft 0kts
29-Jan-20 20:52 33.403870 -118.415292 235 1546ft 0kts
29-Jan-20 20:53 33.403870 -118.415292 235 1546ft 0kts
29-Jan-20 20:54 33.403870 -118.415292 235 1546ft 0kts
29-Jan-20 20:55 33.403870 -118.415292 235 1546ft 0kts
29-Jan-20 20:56 33.403870 -118.415292 235 1546ft 0kts
29-Jan-20 20:57 33.403870 -118.415292 235 1546ft 0kts
29-Jan-20 20:58 33.403870 -118.415292 235 1546ft 0kts
29-Jan-20 20:59 33.403870 -118.415292 235 1546ft 0kts
29-Jan-20 21:00 33.403870 -118.415292 235 1546ft 0kts
29-Jan-20 21:01 33.403870 -118.415292 235 1546ft 0kts

Navigation Log

Ident Type
Flight plan parsing failed, navigation log unavailable